McIntosh, New Mexico
Current Conditions -  °F | °C
As of 5:15 PM on Saturday 25 Oct 2014 (Local Time) from K0E0 Reporting Station
Clear Clear  
Wind Chill: 76°   Ceiling: Unl
Heat Index: 76°   Visibility: 10mi
Dew Point: 26°   Wind: 13mph
Humidity: 16%   Direction: 260°W
Pressure: 30.25"   Gusts: NA
Location:  34.86°N, 106.05°W
Report Text: K0E0 252315Z AUTO 26011KT 10SM CLR 24/M03 A3025 RMK AO2 T02441035
Loading
Personal Weather Stations






























Interactive Weather Map
Tropical Storm Tracking
New forecast layout! Learn more

10-Day Weather Forecast

Advertisements
Track Severe Weather on mobile